sensor_id;sensor_type;location;lat;lon;timestamp;pressure;altitude;pressure_sealevel;temperature;humidity
48614;BME280;34408;51.426;5.444;2023-05-08T00:02:15;101946.81;;;17.14;68.93
48614;BME280;34408;51.426;5.444;2023-05-08T00:04:43;101946.81;;;17.14;68.95
48614;BME280;34408;51.426;5.444;2023-05-08T00:07:10;101952.47;;;17.12;68.87
48614;BME280;34408;51.426;5.444;2023-05-08T00:09:40;101944.81;;;17.09;68.91
48614;BME280;34408;51.426;5.444;2023-05-08T00:12:07;101946.22;;;17.12;68.62
48614;BME280;34408;51.426;5.444;2023-05-08T00:14:35;101948.94;;;17.12;68.75
48614;BME280;34408;51.426;5.444;2023-05-08T00:17:03;101950.00;;;17.11;68.96
48614;BME280;34408;51.426;5.444;2023-05-08T00:19:31;101951.66;;;17.12;68.74
48614;BME280;34408;51.426;5.444;2023-05-08T00:21:59;101951.06;;;17.10;68.89
48614;BME280;34408;51.426;5.444;2023-05-08T00:24:27;101950.47;;;17.08;68.85
48614;BME280;34408;51.426;5.444;2023-05-08T00:26:56;101949.66;;;17.07;68.99
48614;BME280;34408;51.426;5.444;2023-05-08T00:29:24;101943.38;;;17.07;68.98
48614;BME280;34408;51.426;5.444;2023-05-08T00:31:52;101948.81;;;17.07;68.66
48614;BME280;34408;51.426;5.444;2023-05-08T00:34:20;101948.00;;;17.06;68.61
48614;BME280;34408;51.426;5.444;2023-05-08T00:36:48;101946.34;;;17.05;68.75
48614;BME280;34408;51.426;5.444;2023-05-08T00:39:16;101950.94;;;17.05;68.78
48614;BME280;34408;51.426;5.444;2023-05-08T00:41:44;101957.22;;;17.05;68.61
48614;BME280;34408;51.426;5.444;2023-05-08T00:44:13;101959.09;;;17.05;68.81
48614;BME280;34408;51.426;5.444;2023-05-08T00:46:42;101956.63;;;17.03;68.43
48614;BME280;34408;51.426;5.444;2023-05-08T00:49:11;101949.53;;;17.02;68.45
48614;BME280;34408;51.426;5.444;2023-05-08T00:51:40;101954.13;;;17.02;68.67
48614;BME280;34408;51.426;5.444;2023-05-08T00:54:09;101952.47;;;17.01;69.01
48614;BME280;34408;51.426;5.444;2023-05-08T00:56:37;101950.00;;;16.99;69.11
48614;BME280;34408;51.426;5.444;2023-05-08T00:59:08;101950.25;;;16.98;69.23
48614;BME280;34408;51.426;5.444;2023-05-08T01:01:40;101928.06;;;16.89;69.01
48614;BME280;34408;51.426;5.444;2023-05-08T01:04:08;101942.34;;;16.96;68.76
48614;BME280;34408;51.426;5.444;2023-05-08T01:06:36;101942.56;;;16.95;69.14
48614;BME280;34408;51.426;5.444;2023-05-08T01:09:04;101940.34;;;16.91;69.03
48614;BME280;34408;51.426;5.444;2023-05-08T01:11:36;101939.25;;;16.92;69.04
48614;BME280;34408;51.426;5.444;2023-05-08T01:14:14;101941.97;;;16.92;68.72
48614;BME280;34408;51.426;5.444;2023-05-08T01:16:51;101947.66;;;16.91;68.96
48614;BME280;34408;51.426;5.444;2023-05-08T01:19:48;101940.56;;;16.90;69.01
48614;BME280;34408;51.426;5.444;2023-05-08T01:22:31;101938.91;;;16.89;68.80
48614;BME280;34408;51.426;5.444;2023-05-08T01:25:28;101932.66;;;16.88;68.97
48614;BME280;34408;51.426;5.444;2023-05-08T01:28:20;101932.66;;;16.88;68.94
48614;BME280;34408;51.426;5.444;2023-05-08T01:31:02;101939.97;;;16.88;69.11
48614;BME280;34408;51.426;5.444;2023-05-08T01:33:37;101937.50;;;16.86;69.15
48614;BME280;34408;51.426;5.444;2023-05-08T01:36:16;101944.00;;;16.85;69.04
48614;BME280;34408;51.426;5.444;2023-05-08T01:38:54;101932.53;;;16.83;68.93
48614;BME280;34408;51.426;5.444;2023-05-08T01:41:25;101939.63;;;16.84;68.90
48614;BME280;34408;51.426;5.444;2023-05-08T01:44:04;101942.56;;;16.83;68.93
48614;BME280;34408;51.426;5.444;2023-05-08T01:46:32;101937.16;;;16.83;68.79
48614;BME280;34408;51.426;5.444;2023-05-08T01:49:07;101939.88;;;16.83;68.85
48614;BME280;34408;51.426;5.444;2023-05-08T01:51:47;101940.69;;;16.83;68.88
48614;BME280;34408;51.426;5.444;2023-05-08T01:54:18;101940.09;;;16.81;68.87
48614;BME280;34408;51.426;5.444;2023-05-08T01:56:48;101942.56;;;16.83;68.64
48614;BME280;34408;51.426;5.444;2023-05-08T01:59:20;101942.81;;;16.81;68.69
48614;BME280;34408;51.426;5.444;2023-05-08T02:01:51;101942.81;;;16.81;68.60
48614;BME280;34408;51.426;5.444;2023-05-08T02:04:22;101943.88;;;16.80;68.60
48614;BME280;34408;51.426;5.444;2023-05-08T02:06:51;101938.44;;;16.80;68.80
48614;BME280;34408;51.426;5.444;2023-05-08T02:09:21;101942.22;;;16.79;68.70
48614;BME280;34408;51.426;5.444;2023-05-08T02:11:51;101939.63;;;16.73;68.92
48614;BME280;34408;51.426;5.444;2023-05-08T02:14:20;101937.38;;;16.70;68.92
48614;BME280;34408;51.426;5.444;2023-05-08T02:16:49;101953.31;;;16.78;68.88
48614;BME280;34408;51.426;5.444;2023-05-08T02:19:22;101950.59;;;16.78;68.96
48614;BME280;34408;51.426;5.444;2023-05-08T02:21:51;101958.97;;;16.76;68.82
48614;BME280;34408;51.426;5.444;2023-05-08T02:24:22;101962.75;;;16.75;68.81
48614;BME280;34408;51.426;5.444;2023-05-08T02:26:51;101957.34;;;16.75;68.90
48614;BME280;34408;51.426;5.444;2023-05-08T02:29:21;101944.09;;;16.67;68.68
48614;BME280;34408;51.426;5.444;2023-05-08T02:31:50;101952.97;;;16.74;68.75
48614;BME280;34408;51.426;5.444;2023-05-08T02:34:22;101951.31;;;16.73;68.68
48614;BME280;34408;51.426;5.444;2023-05-08T02:36:51;101954.03;;;16.73;68.85
48614;BME280;34408;51.426;5.444;2023-05-08T02:39:20;101954.03;;;16.73;68.86
48614;BME280;34408;51.426;5.444;2023-05-08T02:41:51;101962.41;;;16.72;68.95
48614;BME280;34408;51.426;5.444;2023-05-08T02:44:19;101957.22;;;16.70;68.71
48614;BME280;34408;51.426;5.444;2023-05-08T02:46:52;101958.28;;;16.69;68.75
48614;BME280;34408;51.426;5.444;2023-05-08T02:49:29;101951.19;;;16.68;68.77
48614;BME280;34408;51.426;5.444;2023-05-08T02:52:03;101953.91;;;16.68;68.89
48614;BME280;34408;51.426;5.444;2023-05-08T02:54:37;101960.16;;;16.69;69.05
48614;BME280;34408;51.426;5.444;2023-05-08T02:57:13;101957.69;;;16.67;69.06
48614;BME280;34408;51.426;5.444;2023-05-08T02:59:51;101956.03;;;16.66;68.93
48614;BME280;34408;51.426;5.444;2023-05-08T03:02:27;101953.56;;;16.65;68.94
48614;BME280;34408;51.426;5.444;2023-05-08T03:05:04;101957.09;;;16.65;68.91
48614;BME280;34408;51.426;5.444;2023-05-08T03:07:37;101952.69;;;16.64;69.11
48614;BME280;34408;51.426;5.444;2023-05-08T03:10:09;101958.34;;;16.63;69.01
48614;BME280;34408;51.426;5.444;2023-05-08T03:12:41;101956.69;;;16.62;68.95
48614;BME280;34408;51.426;5.444;2023-05-08T03:15:18;101950.44;;;16.61;68.97
48614;BME280;34408;51.426;5.444;2023-05-08T03:17:52;101949.63;;;16.60;68.95
48614;BME280;34408;51.426;5.444;2023-05-08T03:20:23;101947.97;;;16.59;69.11
48614;BME280;34408;51.426;5.444;2023-05-08T03:22:54;101946.06;;;16.60;68.94
48614;BME280;34408;51.426;5.444;2023-05-08T03:25:22;101953.63;;;16.58;69.20
48614;BME280;34408;51.426;5.444;2023-05-08T03:27:52;101950.91;;;16.58;69.08
48614;BME280;34408;51.426;5.444;2023-05-08T03:30:20;101945.72;;;16.56;69.08
48614;BME280;34408;51.426;5.444;2023-05-08T03:32:49;101948.44;;;16.56;68.83
48614;BME280;34408;51.426;5.444;2023-05-08T03:35:19;101950.31;;;16.56;68.88
48614;BME280;34408;51.426;5.444;2023-05-08T03:37:51;101942.19;;;16.56;68.92
48614;BME280;34408;51.426;5.444;2023-05-08T03:40:19;101948.66;;;16.55;69.12
48614;BME280;34408;51.426;5.444;2023-05-08T03:42:47;101942.19;;;16.56;68.89
48614;BME280;34408;51.426;5.444;2023-05-08T03:45:17;101938.63;;;16.55;68.96
48614;BME280;34408;51.426;5.444;2023-05-08T03:47:46;101947.03;;;16.54;68.93
48614;BME280;34408;51.426;5.444;2023-05-08T03:50:14;101947.84;;;16.54;69.00
48614;BME280;34408;51.426;5.444;2023-05-08T03:52:43;101938.06;;;16.53;68.86
48614;BME280;34408;51.426;5.444;2023-05-08T03:55:12;101936.41;;;16.52;68.92
48614;BME280;34408;51.426;5.444;2023-05-08T03:57:44;101936.41;;;16.52;68.93
48614;BME280;34408;51.426;5.444;2023-05-08T04:00:24;101949.13;;;16.52;68.97
48614;BME280;34408;51.426;5.444;2023-05-08T04:03:04;101947.50;;;16.51;68.86
48614;BME280;34408;51.426;5.444;2023-05-08T04:05:37;101939.59;;;16.49;68.87
48614;BME280;34408;51.426;5.444;2023-05-08T04:08:14;101942.28;;;16.49;68.96
48614;BME280;34408;51.426;5.444;2023-05-08T04:10:47;101943.13;;;16.50;68.86
48614;BME280;34408;51.426;5.444;2023-05-08T04:13:19;101946.06;;;16.48;68.96
48614;BME280;34408;51.426;5.444;2023-05-08T04:15:51;101954.44;;;16.47;68.74
48614;BME280;34408;51.426;5.444;2023-05-08T04:18:24;101956.09;;;16.48;68.76
48614;BME280;34408;51.426;5.444;2023-05-08T04:20:55;101952.56;;;16.47;68.90
48614;BME280;34408;51.426;5.444;2023-05-08T04:23:24;101953.63;;;16.46;69.00
48614;BME280;34408;51.426;5.444;2023-05-08T04:25:57;101953.03;;;16.44;69.03
48614;BME280;34408;51.426;5.444;2023-05-08T04:28:26;101951.38;;;16.43;69.13
48614;BME280;34408;51.426;5.444;2023-05-08T04:30:55;101953.25;;;16.43;68.98
48614;BME280;34408;51.426;5.444;2023-05-08T04:33:24;101964.13;;;16.43;69.07
48614;BME280;34408;51.426;5.444;2023-05-08T04:35:52;101958.91;;;16.41;69.31
48614;BME280;34408;51.426;5.444;2023-05-08T04:38:20;101970.59;;;16.42;69.25
48614;BME280;34408;51.426;5.444;2023-05-08T04:40:48;101972.72;;;16.40;69.11
48614;BME280;34408;51.426;5.444;2023-05-08T04:43:17;101960.31;;;16.32;69.30
48614;BME280;34408;51.426;5.444;2023-05-08T04:45:45;101973.78;;;16.39;69.11
48614;BME280;34408;51.426;5.444;2023-05-08T04:48:13;101976.50;;;16.39;69.27
48614;BME280;34408;51.426;5.444;2023-05-08T04:50:41;101976.72;;;16.37;69.25
48614;BME280;34408;51.426;5.444;2023-05-08T04:53:09;101982.16;;;16.37;69.19
48614;BME280;34408;51.426;5.444;2023-05-08T04:55:37;101980.50;;;16.36;69.08
48614;BME280;34408;51.426;5.444;2023-05-08T04:58:05;101988.03;;;16.34;69.38
48614;BME280;34408;51.426;5.444;2023-05-08T05:00:35;101987.81;;;16.36;69.35
48614;BME280;34408;51.426;5.444;2023-05-08T05:03:02;101986.16;;;16.35;69.22
48614;BME280;34408;51.426;5.444;2023-05-08T05:05:31;101983.44;;;16.35;69.28
48614;BME280;34408;51.426;5.444;2023-05-08T05:07:58;101997.00;;;16.35;69.17
48614;BME280;34408;51.426;5.444;2023-05-08T05:10:26;101989.94;;;16.34;69.18
48614;BME280;34408;51.426;5.444;2023-05-08T05:12:54;101999.94;;;16.33;69.24
48614;BME280;34408;51.426;5.444;2023-05-08T05:15:22;101998.28;;;16.32;69.40
48614;BME280;34408;51.426;5.444;2023-05-08T05:17:51;102005.59;;;16.32;69.38
48614;BME280;34408;51.426;5.444;2023-05-08T05:20:19;102007.25;;;16.33;69.46
48614;BME280;34408;51.426;5.444;2023-05-08T05:22:47;102004.78;;;16.31;69.31
48614;BME280;34408;51.426;5.444;2023-05-08T05:25:15;102011.03;;;16.32;69.61
48614;BME280;34408;51.426;5.444;2023-05-08T05:27:43;102012.09;;;16.31;69.57
48614;BME280;34408;51.426;5.444;2023-05-08T05:30:11;102017.53;;;16.31;69.48
48614;BME280;34408;51.426;5.444;2023-05-08T05:32:39;102012.09;;;16.31;69.58
48614;BME280;34408;51.426;5.444;2023-05-08T05:35:09;102012.91;;;16.31;69.44
48614;BME280;34408;51.426;5.444;2023-05-08T05:37:37;102022.13;;;16.30;69.62
48614;BME280;34408;51.426;5.444;2023-05-08T05:40:06;102022.13;;;16.30;69.56
48614;BME280;34408;51.426;5.444;2023-05-08T05:42:34;102018.56;;;16.30;69.64
48614;BME280;34408;51.426;5.444;2023-05-08T05:45:03;102017.75;;;16.29;69.58
48614;BME280;34408;51.426;5.444;2023-05-08T05:47:31;102021.28;;;16.30;69.36
48614;BME280;34408;51.426;5.444;2023-05-08T05:49:59;102031.31;;;16.29;69.48
48614;BME280;34408;51.426;5.444;2023-05-08T05:52:28;102024.84;;;16.30;69.67
48614;BME280;34408;51.426;5.444;2023-05-08T05:54:57;102021.28;;;16.30;69.60
48614;BME280;34408;51.426;5.444;2023-05-08T05:57:24;102016.19;;;16.21;69.57
48614;BME280;34408;51.426;5.444;2023-05-08T05:59:52;102030.50;;;16.28;69.35
48614;BME280;34408;51.426;5.444;2023-05-08T06:02:20;102024.22;;;16.28;69.68
48614;BME280;34408;51.426;5.444;2023-05-08T06:04:50;102041.09;;;16.30;69.80
48614;BME280;34408;51.426;5.444;2023-05-08T06:07:17;102038.41;;;16.30;69.61
48614;BME280;34408;51.426;5.444;2023-05-08T06:09:47;102036.75;;;16.29;69.43
48614;BME280;34408;51.426;5.444;2023-05-08T06:12:16;102029.44;;;16.30;69.48
48614;BME280;34408;51.426;5.444;2023-05-08T06:14:44;102040.28;;;16.30;70.24
48614;BME280;34408;51.426;5.444;2023-05-08T06:17:12;102041.94;;;16.31;72.69
48614;BME280;34408;51.426;5.444;2023-05-08T06:19:40;102037.56;;;16.30;72.05
48614;BME280;34408;51.426;5.444;2023-05-08T06:22:08;102035.91;;;16.28;71.50
48614;BME280;34408;51.426;5.444;2023-05-08T06:24:36;102030.50;;;16.28;71.12
48614;BME280;34408;51.426;5.444;2023-05-08T06:27:05;102034.84;;;16.30;70.98
48614;BME280;34408;51.426;5.444;2023-05-08T06:29:33;102034.03;;;16.29;70.97
48614;BME280;34408;51.426;5.444;2023-05-08T06:32:01;102038.41;;;16.30;71.09
48614;BME280;34408;51.426;5.444;2023-05-08T06:34:28;102032.97;;;16.30;71.09
48614;BME280;34408;51.426;5.444;2023-05-08T06:36:57;102044.66;;;16.31;70.91
48614;BME280;34408;51.426;5.444;2023-05-08T06:39:24;102039.22;;;16.31;70.88
48614;BME280;34408;51.426;5.444;2023-05-08T06:41:52;102033.78;;;16.31;70.95
48614;BME280;34408;51.426;5.444;2023-05-08T06:44:21;102041.09;;;16.30;71.08
48614;BME280;34408;51.426;5.444;2023-05-08T06:46:49;102045.94;;;16.28;71.11
48614;BME280;34408;51.426;5.444;2023-05-08T06:49:18;102053.84;;;16.30;71.03
48614;BME280;34408;51.426;5.444;2023-05-08T06:51:45;102051.97;;;16.30;71.37
48614;BME280;34408;51.426;5.444;2023-05-08T06:54:13;102045.72;;;16.30;71.30
48614;BME280;34408;51.426;5.444;2023-05-08T06:56:41;102055.50;;;16.31;71.31
48614;BME280;34408;51.426;5.444;2023-05-08T06:59:09;102059.28;;;16.30;71.13
48614;BME280;34408;51.426;5.444;2023-05-08T07:01:39;102060.94;;;16.31;71.35
48614;BME280;34408;51.426;5.444;2023-05-08T07:04:07;102064.47;;;16.31;71.32
48614;BME280;34408;51.426;5.444;2023-05-08T07:06:35;102064.47;;;16.31;71.43
48614;BME280;34408;51.426;5.444;2023-05-08T07:09:03;102063.63;;;16.31;71.43
48614;BME280;34408;51.426;5.444;2023-05-08T07:11:30;102069.06;;;16.31;71.81
48614;BME280;34408;51.426;5.444;2023-05-08T07:13:58;102070.13;;;16.30;71.78
48614;BME280;34408;51.426;5.444;2023-05-08T07:16:26;102061.75;;;16.31;71.92
48614;BME280;34408;51.426;5.444;2023-05-08T07:18:56;102063.63;;;16.31;72.00
48614;BME280;34408;51.426;5.444;2023-05-08T07:21:24;102069.06;;;16.31;72.17
48614;BME280;34408;51.426;5.444;2023-05-08T07:23:52;102066.34;;;16.31;72.37
48614;BME280;34408;51.426;5.444;2023-05-08T07:26:20;102066.34;;;16.31;72.08
48614;BME280;34408;51.426;5.444;2023-05-08T07:28:48;102062.81;;;16.30;71.98
48614;BME280;34408;51.426;5.444;2023-05-08T07:31:19;102066.34;;;16.31;72.44
48614;BME280;34408;51.426;5.444;2023-05-08T07:33:47;102064.47;;;16.31;71.86
48614;BME280;34408;51.426;5.444;2023-05-08T07:36:16;102068.84;;;16.32;72.04
48614;BME280;34408;51.426;5.444;2023-05-08T07:38:44;102066.13;;;16.32;72.02
48614;BME280;34408;51.426;5.444;2023-05-08T07:41:12;102050.66;;;16.33;71.99
48614;BME280;34408;51.426;5.444;2023-05-08T07:43:40;102063.19;;;16.34;71.73
48614;BME280;34408;51.426;5.444;2023-05-08T07:46:15;102059.63;;;16.33;71.86
48614;BME280;34408;51.426;5.444;2023-05-08T07:48:43;102055.03;;;16.34;71.92
48614;BME280;34408;51.426;5.444;2023-05-08T07:51:11;102053.38;;;16.33;71.57
48614;BME280;34408;51.426;5.444;2023-05-08T07:53:41;102059.41;;;16.35;71.78
48614;BME280;34408;51.426;5.444;2023-05-08T07:56:09;102058.34;;;16.36;71.95
48614;BME280;34408;51.426;5.444;2023-05-08T07:58:36;102056.47;;;16.36;71.81
48614;BME280;34408;51.426;5.444;2023-05-08T08:01:04;102068.97;;;16.37;72.02
48614;BME280;34408;51.426;5.444;2023-05-08T08:03:32;102059.19;;;16.36;71.95
48614;BME280;34408;51.426;5.444;2023-05-08T08:06:00;102064.59;;;16.36;72.06
48614;BME280;34408;51.426;5.444;2023-05-08T08:08:28;102072.50;;;16.38;71.86
48614;BME280;34408;51.426;5.444;2023-05-08T08:10:57;102064.38;;;16.38;72.07
48614;BME280;34408;51.426;5.444;2023-05-08T08:13:29;102058.94;;;16.38;71.94
48614;BME280;34408;51.426;5.444;2023-05-08T08:15:57;102057.06;;;16.38;72.22
48614;BME280;34408;51.426;5.444;2023-05-08T08:18:25;102060.59;;;16.39;72.09
48614;BME280;34408;51.426;5.444;2023-05-08T08:20:53;102059.53;;;16.40;71.74
48614;BME280;34408;51.426;5.444;2023-05-08T08:23:20;102065.78;;;16.40;72.04
48614;BME280;34408;51.426;5.444;2023-05-08T08:25:48;102067.44;;;16.41;71.89
48614;BME280;34408;51.426;5.444;2023-05-08T08:28:18;102062.03;;;16.41;71.71
48614;BME280;34408;51.426;5.444;2023-05-08T08:30:46;102059.31;;;16.41;71.96
48614;BME280;34408;51.426;5.444;2023-05-08T08:33:14;102052.81;;;16.42;71.94
48614;BME280;34408;51.426;5.444;2023-05-08T08:35:44;102055.53;;;16.42;71.87
48614;BME280;34408;51.426;5.444;2023-05-08T08:38:12;102052.59;;;16.44;71.94
48614;BME280;34408;51.426;5.444;2023-05-08T08:40:40;102049.88;;;16.44;71.86
48614;BME280;34408;51.426;5.444;2023-05-08T08:43:09;102054.03;;;16.46;72.10
48614;BME280;34408;51.426;5.444;2023-05-08T08:45:38;102037.47;;;16.36;72.01
48614;BME280;34408;51.426;5.444;2023-05-08T08:48:09;102054.84;;;16.47;72.23
48614;BME280;34408;51.426;5.444;2023-05-08T08:50:41;102051.91;;;16.48;72.23
48614;BME280;34408;51.426;5.444;2023-05-08T08:53:13;102050.00;;;16.49;72.49
48614;BME280;34408;51.426;5.444;2023-05-08T08:55:45;102050.63;;;16.51;72.66
48614;BME280;34408;51.426;5.444;2023-05-08T08:58:17;102041.63;;;16.50;72.21
48614;BME280;34408;51.426;5.444;2023-05-08T09:00:50;102044.13;;;16.52;72.29
48614;BME280;34408;51.426;5.444;2023-05-08T09:03:20;102043.88;;;16.53;72.02
48614;BME280;34408;51.426;5.444;2023-05-08T09:05:48;102049.09;;;16.55;71.94
48614;BME280;34408;51.426;5.444;2023-05-08T09:08:17;102048.84;;;16.56;72.98
48614;BME280;34408;51.426;5.444;2023-05-08T09:10:45;102044.25;;;16.57;73.04
48614;BME280;34408;51.426;5.444;2023-05-08T09:13:13;102054.88;;;16.58;72.88
48614;BME280;34408;51.426;5.444;2023-05-08T09:15:44;102053.81;;;16.59;72.82
48614;BME280;34408;51.426;5.444;2023-05-08T09:18:13;102051.09;;;16.59;72.56
48614;BME280;34408;51.426;5.444;2023-05-08T09:20:42;102051.69;;;16.62;72.47
48614;BME280;34408;51.426;5.444;2023-05-08T09:23:11;102056.91;;;16.63;72.43
48614;BME280;34408;51.426;5.444;2023-05-08T09:25:40;102052.28;;;16.64;72.39
48614;BME280;34408;51.426;5.444;2023-05-08T09:28:15;102055.63;;;16.66;72.19
48614;BME280;34408;51.426;5.444;2023-05-08T09:30:51;102049.16;;;16.67;72.02
48614;BME280;34408;51.426;5.444;2023-05-08T09:33:22;102044.38;;;16.62;71.71
48614;BME280;34408;51.426;5.444;2023-05-08T09:35:51;102053.06;;;16.71;71.43
48614;BME280;34408;51.426;5.444;2023-05-08T09:38:33;102057.66;;;16.70;71.83
48614;BME280;34408;51.426;5.444;2023-05-08T09:41:06;102052.59;;;16.74;71.74
48614;BME280;34408;51.426;5.444;2023-05-08T09:43:34;102051.75;;;16.73;71.98
48614;BME280;34408;51.426;5.444;2023-05-08T09:46:19;102053.41;;;16.74;71.81
48614;BME280;34408;51.426;5.444;2023-05-08T09:48:51;102056.94;;;16.75;72.00
48614;BME280;34408;51.426;5.444;2023-05-08T09:51:19;102055.66;;;16.77;71.83
48614;BME280;34408;51.426;5.444;2023-05-08T09:53:49;102058.38;;;16.77;71.62
48614;BME280;34408;51.426;5.444;2023-05-08T09:56:33;102052.72;;;16.79;71.36
48614;BME280;34408;51.426;5.444;2023-05-08T09:59:03;102059.56;;;16.81;71.33
48614;BME280;34408;51.426;5.444;2023-05-08T10:01:33;102055.78;;;16.82;71.35
48614;BME280;34408;51.426;5.444;2023-05-08T10:04:03;102062.88;;;16.83;71.18
48614;BME280;34408;51.426;5.444;2023-05-08T10:06:32;102058.03;;;16.85;71.43
48614;BME280;34408;51.426;5.444;2023-05-08T10:09:19;102059.69;;;16.86;71.29
48614;BME280;34408;51.426;5.444;2023-05-08T10:11:49;102070.31;;;16.88;71.22
48614;BME280;34408;51.426;5.444;2023-05-08T10:14:20;102071.16;;;16.88;71.52
48614;BME280;34408;51.426;5.444;2023-05-08T10:16:49;102062.16;;;16.88;71.61
48614;BME280;34408;51.426;5.444;2023-05-08T10:19:20;102059.47;;;16.88;71.62
48614;BME280;34408;51.426;5.444;2023-05-08T10:21:50;102058.63;;;16.87;71.47
48614;BME280;34408;51.426;5.444;2023-05-08T10:24:19;102065.72;;;16.88;71.58
48614;BME280;34408;51.426;5.444;2023-05-08T10:26:55;102064.88;;;16.88;71.51
48614;BME280;34408;51.426;5.444;2023-05-08T10:29:39;102064.88;;;16.88;71.56
48614;BME280;34408;51.426;5.444;2023-05-08T10:32:08;102065.72;;;16.88;71.46
48614;BME280;34408;51.426;5.444;2023-05-08T10:34:40;102061.94;;;16.89;71.39
48614;BME280;34408;51.426;5.444;2023-05-08T10:37:08;102060.88;;;16.90;71.48
48614;BME280;34408;51.426;5.444;2023-05-08T10:39:37;102060.88;;;16.90;71.68
48614;BME280;34408;51.426;5.444;2023-05-08T10:42:06;102057.94;;;16.92;71.66
48614;BME280;34408;51.426;5.444;2023-05-08T10:44:35;102059.81;;;16.91;71.62
48614;BME280;34408;51.426;5.444;2023-05-08T10:47:08;102063.13;;;16.94;71.75
48614;BME280;34408;51.426;5.444;2023-05-08T10:49:48;102058.53;;;16.94;71.92
48614;BME280;34408;51.426;5.444;2023-05-08T10:52:20;102059.34;;;16.95;72.22
48614;BME280;34408;51.426;5.444;2023-05-08T10:55:14;102054.75;;;16.95;72.09
48614;BME280;34408;51.426;5.444;2023-05-08T10:58:27;102051.19;;;16.95;72.01
48614;BME280;34408;51.426;5.444;2023-05-08T11:01:13;102050.97;;;16.96;72.12
48614;BME280;34408;51.426;5.444;2023-05-08T11:03:46;102048.84;;;16.98;71.88
48614;BME280;34408;51.426;5.444;2023-05-08T11:06:41;102050.50;;;16.99;71.82
48614;BME280;34408;51.426;5.444;2023-05-08T11:09:14;102045.88;;;17.00;71.51
48614;BME280;34408;51.426;5.444;2023-05-08T11:11:51;102045.41;;;17.03;71.57
48614;BME280;34408;51.426;5.444;2023-05-08T11:14:21;102036.44;;;17.02;71.67
48614;BME280;34408;51.426;5.444;2023-05-08T11:17:06;102046.59;;;17.07;71.46
48614;BME280;34408;51.426;5.444;2023-05-08T11:19:36;102042.81;;;17.08;71.34
48614;BME280;34408;51.426;5.444;2023-05-08T11:22:21;102039.03;;;17.09;71.41
48614;BME280;34408;51.426;5.444;2023-05-08T11:25:01;102026.28;;;17.09;71.32
48614;BME280;34408;51.426;5.444;2023-05-08T11:27:35;102030.41;;;17.12;71.08
48614;BME280;34408;51.426;5.444;2023-05-08T11:30:21;102025.59;;;17.14;71.19
48614;BME280;34408;51.426;5.444;2023-05-08T11:32:57;102016.97;;;17.17;71.08
48614;BME280;34408;51.426;5.444;2023-05-08T11:35:50;102019.44;;;17.18;70.88
48614;BME280;34408;51.426;5.444;2023-05-08T11:41:07;102010.09;;;17.14;71.00
48614;BME280;34408;51.426;5.444;2023-05-08T11:44:17;102013.28;;;17.23;70.85
48614;BME280;34408;51.426;5.444;2023-05-08T11:46:50;102014.72;;;17.26;70.95
48614;BME280;34408;51.426;5.444;2023-05-08T11:49:21;101994.63;;;17.15;71.23
48614;BME280;34408;51.426;5.444;2023-05-08T11:51:57;101997.81;;;17.23;71.46
48614;BME280;34408;51.426;5.444;2023-05-08T11:54:28;102013.75;;;17.32;70.94
48614;BME280;34408;51.426;5.444;2023-05-08T11:56:57;102008.88;;;17.34;71.01
48614;BME280;34408;51.426;5.444;2023-05-08T11:59:25;101987.28;;;17.27;70.97
48614;BME280;34408;51.426;5.444;2023-05-08T12:01:53;102002.97;;;17.37;70.79
48614;BME280;34408;51.426;5.444;2023-05-08T12:04:23;101997.28;;;17.38;70.99
48614;BME280;34408;51.426;5.444;2023-05-08T12:06:56;102000.13;;;17.43;71.22
48614;BME280;34408;51.426;5.444;2023-05-08T12:09:26;101996.91;;;17.46;70.86
48614;BME280;34408;51.426;5.444;2023-05-08T12:11:57;101995.63;;;17.49;70.94
48614;BME280;34408;51.426;5.444;2023-05-08T12:14:25;101981.78;;;17.50;71.06
48614;BME280;34408;51.426;5.444;2023-05-08T12:16:53;101985.69;;;17.54;71.15
48614;BME280;34408;51.426;5.444;2023-05-08T12:19:21;101987.09;;;17.57;71.21
48614;BME280;34408;51.426;5.444;2023-05-08T12:21:49;101982.25;;;17.59;70.93
48614;BME280;34408;51.426;5.444;2023-05-08T12:24:17;101989.91;;;17.62;70.97
48614;BME280;34408;51.426;5.444;2023-05-08T12:26:52;101970.53;;;17.58;70.99
48614;BME280;34408;51.426;5.444;2023-05-08T12:29:21;101983.41;;;17.75;70.34
48614;BME280;34408;51.426;5.444;2023-05-08T12:31:49;101982.44;;;17.81;69.87
48614;BME280;34408;51.426;5.444;2023-05-08T12:34:17;101980.88;;;17.85;69.28
48614;BME280;34408;51.426;5.444;2023-05-08T12:36:46;101975.78;;;17.88;69.43
48614;BME280;34408;51.426;5.444;2023-05-08T12:39:15;101976.59;;;17.89;68.79
48614;BME280;34408;51.426;5.444;2023-05-08T12:41:47;101975.28;;;17.92;68.25
48614;BME280;34408;51.426;5.444;2023-05-08T12:44:22;101966.06;;;17.93;66.91
48614;BME280;34408;51.426;5.444;2023-05-08T12:46:51;101969.63;;;17.93;66.75
48614;BME280;34408;51.426;5.444;2023-05-08T12:49:23;101941.50;;;17.87;67.10
48614;BME280;34408;51.426;5.444;2023-05-08T12:51:59;101957.19;;;17.97;67.69
48614;BME280;34408;51.426;5.444;2023-05-08T12:54:31;101950.19;;;18.01;68.33
48614;BME280;34408;51.426;5.444;2023-05-08T12:56:59;101946.16;;;18.04;68.72
48614;BME280;34408;51.426;5.444;2023-05-08T12:59:30;101949.78;;;18.09;69.45
48614;BME280;34408;51.426;5.444;2023-05-08T13:01:58;101936.75;;;18.11;69.56
48614;BME280;34408;51.426;5.444;2023-05-08T13:04:26;101930.97;;;18.08;69.39
48614;BME280;34408;51.426;5.444;2023-05-08T13:06:55;101942.53;;;18.15;68.29
48614;BME280;34408;51.426;5.444;2023-05-08T13:09:22;101942.28;;;18.16;67.51
48614;BME280;34408;51.426;5.444;2023-05-08T13:11:50;101940.41;;;18.17;67.78
48614;BME280;34408;51.426;5.444;2023-05-08T13:14:18;101935.28;;;18.20;68.18